createdAt,value
2022-12-16T00:02:14.300Z,81.76
2022-12-16T00:04:59.892Z,82.32
2022-12-16T00:07:46.369Z,82.10
2022-12-16T00:10:53.114Z,82.01
2022-12-16T00:13:41.019Z,82.34
2022-12-16T00:16:27.257Z,82.81
2022-12-16T00:19:13.328Z,82.67
2022-12-16T00:21:59.605Z,82.99
2022-12-16T00:24:44.998Z,83.23
2022-12-16T00:27:30.759Z,83.27
2022-12-16T00:30:16.888Z,83.06
2022-12-16T00:33:02.461Z,83.35
2022-12-16T00:35:48.888Z,83.33
2022-12-16T00:38:34.669Z,83.16
2022-12-16T00:41:20.543Z,83.52
2022-12-16T00:44:05.955Z,83.32
2022-12-16T00:46:51.271Z,83.65
2022-12-16T00:49:37.562Z,83.67
2022-12-16T00:52:23.048Z,83.60
2022-12-16T00:55:09.047Z,84.26
2022-12-16T00:57:54.943Z,84.02
2022-12-16T01:00:41.547Z,84.49
2022-12-16T01:03:27.867Z,84.30
2022-12-16T01:06:16.689Z,84.51
2022-12-16T01:09:02.226Z,84.17
2022-12-16T01:11:47.861Z,84.35
2022-12-16T01:14:33.837Z,84.32
2022-12-16T01:17:19.595Z,84.75
2022-12-16T01:20:05.935Z,85.07
2022-12-16T01:22:51.618Z,85.15
2022-12-16T01:25:37.581Z,85.18
2022-12-16T01:28:23.158Z,85.91
2022-12-16T01:31:08.995Z,86.21
2022-12-16T01:33:54.487Z,86.38
2022-12-16T01:36:40.422Z,86.82
2022-12-16T01:39:27.409Z,86.56
2022-12-16T01:42:14.960Z,86.86
2022-12-16T01:45:27.000Z,86.72
2022-12-16T01:48:26.087Z,87.13
2022-12-16T01:51:35.818Z,87.33
2022-12-16T01:54:29.227Z,87.20
2022-12-16T01:57:21.565Z,87.03
2022-12-16T02:00:08.069Z,87.86
2022-12-16T02:02:58.576Z,87.73
2022-12-16T02:05:45.971Z,88.10
2022-12-16T02:08:31.594Z,88.18
2022-12-16T02:11:42.106Z,88.27
2022-12-16T02:14:55.684Z,88.55
2022-12-16T02:17:50.088Z,88.89
2022-12-16T02:21:02.125Z,88.31
2022-12-16T02:24:13.836Z,88.70
2022-12-16T02:27:48.570Z,88.83
2022-12-16T02:30:39.639Z,89.07
2022-12-16T02:33:37.337Z,89.02
2022-12-16T02:36:44.143Z,88.85
2022-12-16T02:39:32.821Z,89.08
2022-12-16T02:42:31.017Z,89.22
2022-12-16T02:45:21.003Z,88.94
2022-12-16T02:48:07.025Z,88.90
2022-12-16T02:50:53.291Z,88.65
2022-12-16T02:53:42.100Z,88.91
2022-12-16T02:56:45.520Z,88.98
2022-12-16T02:59:58.189Z,89.31
2022-12-16T03:03:03.257Z,88.84
2022-12-16T03:05:52.633Z,88.87
2022-12-16T03:08:42.752Z,89.07
2022-12-16T03:11:31.025Z,89.42
2022-12-16T03:14:20.510Z,89.67
2022-12-16T03:17:07.706Z,89.67
2022-12-16T03:20:19.032Z,89.61
2022-12-16T03:23:11.401Z,89.79
2022-12-16T03:26:04.748Z,89.97
2022-12-16T03:29:00.496Z,90.39
2022-12-16T03:32:03.353Z,90.05
2022-12-16T03:34:55.323Z,90.58
2022-12-16T03:37:43.434Z,90.79
2022-12-16T03:40:30.099Z,90.25
2022-12-16T03:43:16.503Z,90.44
2022-12-16T03:46:06.407Z,90.63
2022-12-16T03:48:52.462Z,90.98
2022-12-16T03:51:38.182Z,90.93
2022-12-16T03:54:24.398Z,90.47
2022-12-16T03:57:15.079Z,91.04
2022-12-16T04:00:01.181Z,90.98
2022-12-16T04:02:57.569Z,90.70
2022-12-16T04:05:45.310Z,91.20
2022-12-16T04:08:30.590Z,91.02
2022-12-16T04:11:34.774Z,91.06
2022-12-16T04:14:38.655Z,91.28
2022-12-16T04:17:42.695Z,91.21
2022-12-16T04:20:52.566Z,91.02
2022-12-16T04:24:14.143Z,91.14
2022-12-16T04:27:18.092Z,91.58
2022-12-16T04:30:20.475Z,91.26
2022-12-16T04:33:28.928Z,91.40
2022-12-16T04:36:32.861Z,91.47
2022-12-16T04:39:37.035Z,91.42
2022-12-16T04:42:41.104Z,91.00
2022-12-16T04:45:45.270Z,91.46
2022-12-16T04:48:49.089Z,91.42
2022-12-16T04:51:53.102Z,91.67
2022-12-16T04:54:57.117Z,91.50
2022-12-16T04:58:12.962Z,91.41
2022-12-16T05:01:17.698Z,91.53
2022-12-16T05:04:22.230Z,91.44
2022-12-16T05:07:26.312Z,91.46
2022-12-16T05:10:30.471Z,91.22
2022-12-16T05:13:34.945Z,91.29
2022-12-16T05:16:39.137Z,91.04
2022-12-16T05:19:59.910Z,91.29
2022-12-16T05:23:04.320Z,91.41
2022-12-16T05:26:08.734Z,91.46
2022-12-16T05:29:12.987Z,91.01
2022-12-16T05:32:17.553Z,91.25
2022-12-16T05:35:21.944Z,91.49
2022-12-16T05:38:26.343Z,91.45
2022-12-16T05:41:30.305Z,91.38
2022-12-16T05:44:34.277Z,91.52
2022-12-16T05:47:38.276Z,91.90
2022-12-16T05:50:42.478Z,91.87
2022-12-16T05:53:46.872Z,91.66
2022-12-16T05:56:51.060Z,91.19
2022-12-16T05:59:55.195Z,91.41
2022-12-16T06:02:59.403Z,91.62
2022-12-16T06:06:03.825Z,91.43
2022-12-16T06:09:07.878Z,91.76
2022-12-16T06:12:12.121Z,91.19
2022-12-16T06:15:16.342Z,91.67
2022-12-16T06:18:20.282Z,91.87
2022-12-16T06:21:24.212Z,91.46
2022-12-16T06:24:29.132Z,91.68
2022-12-16T06:27:33.325Z,91.39
2022-12-16T06:30:37.648Z,91.45
2022-12-16T06:33:42.169Z,91.17
2022-12-16T06:36:46.378Z,91.27
2022-12-16T06:39:53.202Z,91.05
2022-12-16T06:43:00.346Z,91.13
2022-12-16T06:46:04.657Z,91.29
2022-12-16T06:49:08.735Z,91.36
2022-12-16T06:52:13.141Z,91.04
2022-12-16T06:55:25.219Z,91.34
2022-12-16T06:58:29.859Z,91.34
2022-12-16T07:01:34.118Z,91.32
2022-12-16T07:04:38.351Z,91.00
2022-12-16T07:07:42.250Z,91.17
2022-12-16T07:10:46.366Z,90.99
2022-12-16T07:13:50.375Z,90.79
2022-12-16T07:16:54.551Z,90.67
2022-12-16T07:19:59.388Z,90.74
2022-12-16T07:23:10.972Z,90.79
2022-12-16T07:26:17.371Z,90.90
2022-12-16T07:29:21.832Z,90.75
2022-12-16T07:32:26.127Z,90.50
2022-12-16T07:35:30.033Z,90.63
2022-12-16T07:38:33.937Z,90.66
2022-12-16T07:41:37.992Z,90.66
2022-12-16T07:44:42.066Z,90.62
2022-12-16T07:47:46.164Z,90.94
2022-12-16T07:50:50.399Z,90.52
2022-12-16T07:53:55.074Z,90.77
2022-12-16T07:56:59.343Z,90.51
2022-12-16T08:00:03.469Z,90.71
2022-12-16T08:03:15.871Z,90.52
2022-12-16T08:06:19.984Z,90.68
2022-12-16T08:09:24.196Z,90.44
2022-12-16T08:12:28.485Z,90.29
2022-12-16T08:15:32.532Z,90.64
2022-12-16T08:18:36.663Z,90.75
2022-12-16T08:21:40.914Z,90.82
2022-12-16T08:24:52.988Z,90.81
2022-12-16T08:27:57.850Z,90.57
2022-12-16T08:31:02.269Z,90.39
2022-12-16T08:34:06.483Z,90.63
2022-12-16T08:37:10.505Z,89.94
2022-12-16T08:43:39.113Z,90.54
2022-12-16T08:46:43.825Z,90.61
2022-12-16T08:49:48.170Z,90.45
2022-12-16T08:52:53.041Z,90.49
2022-12-16T08:55:57.422Z,90.60
2022-12-16T08:59:01.314Z,90.75
2022-12-16T09:02:06.169Z,90.50
2022-12-16T09:05:10.281Z,90.67
2022-12-16T09:08:18.752Z,90.59
2022-12-16T09:11:23.451Z,90.80
2022-12-16T09:14:27.603Z,90.16
2022-12-16T09:17:31.558Z,90.25
2022-12-16T09:20:35.571Z,90.49
2022-12-16T09:23:39.664Z,90.45
2022-12-16T09:26:44.375Z,90.74
2022-12-16T09:29:48.504Z,90.49
2022-12-16T09:32:53.004Z,90.24
2022-12-16T09:35:57.516Z,90.26
2022-12-16T09:39:01.982Z,90.12
2022-12-16T09:42:49.860Z,90.29
2022-12-16T09:46:06.635Z,90.05
2022-12-16T09:49:38.162Z,90.03
2022-12-16T09:52:43.875Z,89.79
2022-12-16T09:55:51.391Z,89.85
2022-12-16T09:59:01.877Z,90.18
2022-12-16T10:02:07.733Z,89.93
2022-12-16T10:05:13.403Z,89.86
2022-12-16T10:08:45.029Z,89.74
2022-12-16T10:12:15.483Z,89.87
2022-12-16T10:15:43.271Z,89.70
2022-12-16T10:19:12.837Z,89.73
2022-12-16T10:22:42.755Z,89.84
2022-12-16T10:26:08.206Z,89.69
2022-12-16T10:29:39.823Z,89.93
2022-12-16T10:33:05.877Z,89.83
2022-12-16T10:36:13.116Z,89.64
2022-12-16T10:39:21.767Z,89.40
2022-12-16T10:42:37.632Z,89.69
2022-12-16T10:45:53.360Z,89.86
2022-12-16T10:48:57.351Z,89.70
2022-12-16T10:52:05.378Z,89.92
2022-12-16T10:55:38.608Z,89.53
2022-12-16T10:59:11.828Z,89.92
2022-12-16T11:02:19.535Z,90.01
2022-12-16T11:05:52.585Z,89.70
2022-12-16T11:08:57.270Z,89.70
2022-12-16T11:12:01.637Z,89.15
2022-12-16T11:18:38.627Z,89.19
2022-12-16T11:21:42.849Z,89.01
2022-12-16T11:24:47.358Z,89.21
2022-12-16T11:27:51.804Z,89.25
2022-12-16T11:30:55.952Z,88.84
2022-12-16T11:34:03.173Z,89.04
2022-12-16T11:37:11.022Z,89.25
2022-12-16T11:40:15.808Z,89.46
2022-12-16T11:43:22.319Z,89.18
2022-12-16T11:46:44.053Z,89.03
2022-12-16T11:49:52.065Z,89.14
2022-12-16T11:52:58.133Z,89.02
2022-12-16T11:56:11.097Z,89.22
2022-12-16T11:59:24.795Z,89.15
2022-12-16T12:02:35.983Z,88.84
2022-12-16T12:05:56.192Z,89.04
2022-12-16T12:09:31.711Z,89.60
2022-12-16T12:12:41.977Z,89.30
2022-12-16T12:15:46.052Z,89.28
2022-12-16T12:19:09.387Z,89.26
2022-12-16T12:22:21.247Z,88.98
2022-12-16T12:25:36.631Z,88.92
2022-12-16T12:29:14.996Z,89.11
2022-12-16T12:33:02.276Z,89.14
2022-12-16T12:36:18.193Z,89.15
2022-12-16T12:39:25.704Z,89.06
2022-12-16T12:42:51.799Z,88.96
2022-12-16T12:46:21.479Z,89.08
2022-12-16T12:49:38.429Z,88.93
2022-12-16T12:53:06.746Z,89.23
2022-12-16T12:56:22.959Z,89.08
2022-12-16T12:59:43.919Z,89.44
2022-12-16T13:02:59.629Z,89.41
2022-12-16T13:06:04.445Z,89.79
2022-12-16T13:09:08.499Z,89.70
2022-12-16T13:12:24.918Z,89.70
2022-12-16T13:15:30.327Z,89.68
2022-12-16T13:18:45.691Z,90.13
2022-12-16T13:21:56.782Z,89.34
2022-12-16T13:25:08.889Z,89.28
2022-12-16T13:28:15.910Z,89.21
2022-12-16T13:31:25.707Z,89.39
2022-12-16T13:34:33.114Z,89.26
2022-12-16T13:37:44.518Z,89.36
2022-12-16T13:41:16.720Z,88.95
2022-12-16T13:44:20.881Z,89.25
2022-12-16T13:48:13.179Z,89.46
2022-12-16T13:51:19.175Z,89.56
2022-12-16T13:54:26.342Z,89.76
2022-12-16T13:57:34.257Z,89.80
2022-12-16T14:00:41.733Z,89.89
2022-12-16T14:03:58.532Z,89.53
2022-12-16T14:07:03.153Z,89.63
2022-12-16T14:10:07.714Z,89.47
2022-12-16T14:13:19.360Z,88.84
2022-12-16T14:16:32.206Z,88.59
2022-12-16T14:19:43.265Z,89.11
2022-12-16T14:23:55.352Z,88.67
2022-12-16T14:26:54.909Z,88.79
2022-12-16T14:30:01.960Z,88.89
2022-12-16T14:33:06.535Z,89.03
2022-12-16T14:36:11.054Z,89.02
2022-12-16T14:39:15.289Z,89.00
2022-12-16T14:42:19.494Z,88.86
2022-12-16T14:45:39.047Z,89.48
2022-12-16T14:48:52.560Z,89.25
2022-12-16T14:52:06.094Z,89.04
2022-12-16T14:55:11.476Z,89.08
2022-12-16T14:58:29.780Z,89.16
2022-12-16T15:01:41.195Z,89.21
2022-12-16T15:04:54.347Z,88.82
2022-12-16T15:08:14.859Z,89.25
2022-12-16T15:11:53.839Z,89.26
2022-12-16T15:15:01.323Z,89.06
2022-12-16T15:18:10.837Z,88.80
2022-12-16T15:21:15.416Z,88.73
2022-12-16T15:24:19.988Z,88.74
2022-12-16T15:27:40.586Z,89.09
2022-12-16T15:31:04.386Z,88.63
2022-12-16T15:34:29.680Z,88.40
2022-12-16T15:37:49.179Z,88.39
2022-12-16T15:40:59.043Z,88.26
2022-12-16T15:44:04.950Z,88.41
2022-12-16T15:47:09.758Z,88.61
2022-12-16T15:50:16.949Z,89.21
2022-12-16T15:53:52.134Z,89.25
2022-12-16T15:57:04.960Z,89.07
2022-12-16T16:00:18.691Z,89.50
2022-12-16T16:03:49.267Z,89.73
2022-12-16T16:10:47.396Z,89.55
2022-12-16T16:13:52.774Z,89.59
2022-12-16T16:16:56.971Z,89.59
2022-12-16T16:20:03.738Z,89.54
2022-12-16T16:23:08.566Z,89.27
2022-12-16T16:26:13.258Z,89.00
2022-12-16T16:29:17.889Z,89.11
2022-12-16T16:32:27.622Z,88.71
2022-12-16T16:35:33.867Z,88.91
2022-12-16T16:38:38.650Z,88.90
2022-12-16T16:41:43.845Z,89.07
2022-12-16T16:44:49.687Z,89.49
2022-12-16T16:47:54.588Z,89.33
2022-12-16T16:50:58.895Z,89.66
2022-12-16T16:54:03.766Z,89.42
2022-12-16T16:57:09.432Z,89.88
2022-12-16T17:00:13.635Z,90.00
2022-12-16T17:03:18.469Z,89.71
2022-12-16T17:06:24.164Z,89.30
2022-12-16T17:09:28.877Z,88.89
2022-12-16T17:12:43.147Z,88.79
2022-12-16T17:16:11.780Z,88.88
2022-12-16T17:19:22.041Z,89.08
2022-12-16T17:22:26.890Z,88.78
2022-12-16T17:25:35.921Z,88.91
2022-12-16T17:28:40.594Z,88.55
2022-12-16T17:31:47.138Z,88.17
2022-12-16T17:34:52.777Z,88.15
2022-12-16T17:38:00.252Z,87.78
2022-12-16T17:41:15.630Z,87.88
2022-12-16T17:44:21.168Z,87.89
2022-12-16T17:47:27.393Z,88.07
2022-12-16T17:50:33.556Z,87.69
2022-12-16T17:53:39.508Z,87.74
2022-12-16T17:56:44.311Z,87.72
2022-12-16T17:59:53.206Z,87.55
2022-12-16T18:02:59.324Z,87.53
2022-12-16T18:06:03.624Z,87.25
2022-12-16T18:09:08.921Z,87.16
2022-12-16T18:12:16.992Z,87.08
2022-12-16T18:15:22.801Z,86.97
2022-12-16T18:18:27.564Z,86.92
2022-12-16T18:21:32.622Z,87.02
2022-12-16T18:24:39.799Z,86.90
2022-12-16T18:27:47.969Z,86.98
2022-12-16T18:30:55.463Z,87.33
2022-12-16T18:34:00.884Z,87.09
2022-12-16T18:37:07.586Z,87.30
2022-12-16T18:40:18.027Z,87.26
2022-12-16T18:43:28.235Z,87.35
2022-12-16T18:46:33.110Z,87.02
2022-12-16T18:49:39.520Z,87.00
2022-12-16T18:56:55.250Z,86.17
2022-12-16T18:59:59.396Z,85.93
2022-12-16T19:03:04.101Z,85.95
2022-12-16T19:06:13.689Z,86.28
2022-12-16T19:09:39.505Z,86.06
2022-12-16T19:12:47.494Z,86.51
2022-12-16T19:15:53.338Z,86.59
2022-12-16T19:18:57.966Z,86.70
2022-12-16T19:22:05.903Z,86.12
2022-12-16T19:25:11.765Z,85.85
2022-12-16T19:28:18.198Z,86.52
2022-12-16T19:31:32.511Z,86.59
2022-12-16T19:34:40.387Z,86.61
2022-12-16T19:37:45.434Z,86.43
2022-12-16T19:40:51.450Z,86.81
2022-12-16T19:47:28.692Z,86.03
2022-12-16T19:53:40.671Z,86.11
2022-12-16T19:56:45.143Z,86.02
2022-12-16T19:59:49.557Z,85.82
2022-12-16T20:02:54.107Z,85.64
2022-12-16T20:05:58.497Z,85.52
2022-12-16T20:09:08.173Z,85.56
2022-12-16T20:12:14.877Z,85.93
2022-12-16T20:15:19.707Z,85.87
2022-12-16T20:18:25.156Z,86.08
2022-12-16T20:21:49.166Z,86.34
2022-12-16T20:28:24.653Z,86.41
2022-12-16T20:31:29.771Z,86.51
2022-12-16T20:34:34.174Z,86.35
2022-12-16T20:37:40.923Z,86.46
2022-12-16T20:40:46.082Z,86.51
2022-12-16T20:47:29.504Z,86.30
2022-12-16T20:50:36.837Z,86.47
2022-12-16T20:53:42.806Z,85.86
2022-12-16T20:56:49.515Z,86.00
2022-12-16T21:00:06.836Z,86.06
2022-12-16T21:03:14.058Z,85.77
2022-12-16T21:06:19.525Z,85.97
2022-12-16T21:09:28.216Z,86.01
2022-12-16T21:12:36.363Z,86.45
2022-12-16T21:15:41.347Z,85.50
2022-12-16T21:18:45.536Z,85.42
2022-12-16T21:21:50.162Z,85.37
2022-12-16T21:24:56.773Z,85.70
2022-12-16T21:28:01.029Z,85.75
2022-12-16T21:31:04.903Z,85.74
2022-12-16T21:34:11.550Z,85.86
2022-12-16T21:37:15.909Z,85.63
2022-12-16T21:40:19.967Z,85.98
2022-12-16T21:43:24.252Z,85.96
2022-12-16T21:46:28.656Z,86.09
2022-12-16T21:49:32.851Z,85.92
2022-12-16T21:52:37.103Z,85.70
2022-12-16T21:55:41.115Z,85.60
2022-12-16T21:58:45.252Z,86.12
2022-12-16T22:01:49.959Z,86.10
2022-12-16T22:04:54.421Z,86.24
2022-12-16T22:08:01.025Z,86.50
2022-12-16T22:11:04.991Z,86.72
2022-12-16T22:14:09.140Z,86.40
2022-12-16T22:17:14.191Z,86.63
2022-12-16T22:20:19.147Z,86.46
2022-12-16T22:23:34.422Z,85.95
2022-12-16T22:26:39.659Z,86.06
2022-12-16T22:29:43.608Z,85.67
2022-12-16T22:32:50.156Z,85.54
2022-12-16T22:35:54.033Z,85.42
2022-12-16T22:38:59.501Z,85.45
2022-12-16T22:42:03.893Z,85.53
2022-12-16T22:45:07.957Z,86.03
2022-12-16T22:48:16.261Z,86.07
2022-12-16T22:51:21.136Z,85.92
2022-12-16T22:54:25.041Z,85.98
2022-12-16T22:57:34.230Z,86.26
2022-12-16T23:00:39.848Z,86.39
2022-12-16T23:03:44.986Z,86.30
2022-12-16T23:06:49.456Z,85.98
2022-12-16T23:09:53.847Z,86.23
2022-12-16T23:13:00.388Z,86.31
2022-12-16T23:16:04.358Z,86.54
2022-12-16T23:19:08.230Z,85.91
2022-12-16T23:22:12.297Z,86.21
2022-12-16T23:25:16.641Z,86.21
2022-12-16T23:28:20.804Z,86.81
2022-12-16T23:31:24.978Z,87.06
2022-12-16T23:34:29.474Z,86.51
2022-12-16T23:37:34.597Z,86.72
2022-12-16T23:40:38.963Z,86.52
2022-12-16T23:43:43.557Z,86.51
2022-12-16T23:46:48.878Z,86.56
2022-12-16T23:49:53.744Z,86.52
2022-12-16T23:53:00.878Z,86.72
2022-12-16T23:56:05.255Z,86.82
2022-12-16T23:59:09.378Z,86.70
